Terminal Aerodrome Forecast
Issued by NWS

Home | Current Version | Previous Version | Text Only | Print | Product List | Glossary On
Versions: 1 2 3 4 5 6 7 8 9 10 11 12 13 14 15 16
805
FTUS46 KSEW 230535
TAFCLM
TAF
KCLM 230535Z 2306/2406 24008KT P6SM BKN060 BKN100
     FM231700 06004KT P6SM SCT045 OVC120
     FM240300 00000KT P6SM -RA OVC060=

USA.gov is the U.S. government's official web portal to all federal, state and local government web resources and services.